sensor_id;sensor_type;location;lat;lon;timestamp;temperature;humidity
16513;DHT22;8369;48.030;11.598;2023-07-02T00:01:47;18.80;99.90
16513;DHT22;8369;48.030;11.598;2023-07-02T00:04:13;18.80;99.90
16513;DHT22;8369;48.030;11.598;2023-07-02T00:06:45;18.80;99.90
16513;DHT22;8369;48.030;11.598;2023-07-02T00:09:11;18.80;99.90
16513;DHT22;8369;48.030;11.598;2023-07-02T00:11:41;18.80;99.90
16513;DHT22;8369;48.030;11.598;2023-07-02T00:14:08;18.80;99.90
16513;DHT22;8369;48.030;11.598;2023-07-02T00:16:37;18.70;99.90
16513;DHT22;8369;48.030;11.598;2023-07-02T00:19:03;18.70;99.90
16513;DHT22;8369;48.030;11.598;2023-07-02T00:21:29;18.60;99.90
16513;DHT22;8369;48.030;11.598;2023-07-02T00:23:55;18.60;99.90
16513;DHT22;8369;48.030;11.598;2023-07-02T00:26:27;18.50;99.90
16513;DHT22;8369;48.030;11.598;2023-07-02T00:28:53;18.50;99.90
16513;DHT22;8369;48.030;11.598;2023-07-02T00:31:19;18.50;99.90
16513;DHT22;8369;48.030;11.598;2023-07-02T00:33:45;18.50;99.90
16513;DHT22;8369;48.030;11.598;2023-07-02T00:36:12;18.50;99.90
16513;DHT22;8369;48.030;11.598;2023-07-02T00:38:49;18.60;99.90
16513;DHT22;8369;48.030;11.598;2023-07-02T00:41:16;18.60;99.90
16513;DHT22;8369;48.030;11.598;2023-07-02T00:43:42;18.60;99.90
16513;DHT22;8369;48.030;11.598;2023-07-02T00:46:15;18.60;99.90
16513;DHT22;8369;48.030;11.598;2023-07-02T00:48:49;18.60;99.90
16513;DHT22;8369;48.030;11.598;2023-07-02T00:51:16;18.60;99.90
16513;DHT22;8369;48.030;11.598;2023-07-02T00:53:44;18.60;99.90
16513;DHT22;8369;48.030;11.598;2023-07-02T00:56:11;18.60;99.90
16513;DHT22;8369;48.030;11.598;2023-07-02T00:58:42;18.60;99.90
16513;DHT22;8369;48.030;11.598;2023-07-02T01:01:27;18.50;99.90
16513;DHT22;8369;48.030;11.598;2023-07-02T01:04:00;18.50;99.90
16513;DHT22;8369;48.030;11.598;2023-07-02T01:06:33;18.50;99.90
16513;DHT22;8369;48.030;11.598;2023-07-02T01:09:02;18.60;99.90
16513;DHT22;8369;48.030;11.598;2023-07-02T01:11:40;18.50;99.90
16513;DHT22;8369;48.030;11.598;2023-07-02T01:14:26;18.60;99.90
16513;DHT22;8369;48.030;11.598;2023-07-02T01:16:53;18.50;99.90
16513;DHT22;8369;48.030;11.598;2023-07-02T01:19:31;18.50;99.90
16513;DHT22;8369;48.030;11.598;2023-07-02T01:21:59;18.50;99.90
16513;DHT22;8369;48.030;11.598;2023-07-02T01:24:26;18.50;99.90
16513;DHT22;8369;48.030;11.598;2023-07-02T01:26:56;18.50;99.90
16513;DHT22;8369;48.030;11.598;2023-07-02T01:29:29;18.50;99.90
16513;DHT22;8369;48.030;11.598;2023-07-02T01:31:56;18.50;99.90
16513;DHT22;8369;48.030;11.598;2023-07-02T01:34:22;18.50;99.90
16513;DHT22;8369;48.030;11.598;2023-07-02T01:36:47;18.50;99.90
16513;DHT22;8369;48.030;11.598;2023-07-02T01:39:13;18.40;99.90
16513;DHT22;8369;48.030;11.598;2023-07-02T01:41:53;18.40;99.90
16513;DHT22;8369;48.030;11.598;2023-07-02T01:44:20;18.40;99.90
16513;DHT22;8369;48.030;11.598;2023-07-02T01:46:47;18.40;99.90
16513;DHT22;8369;48.030;11.598;2023-07-02T01:49:19;18.40;99.90
16513;DHT22;8369;48.030;11.598;2023-07-02T01:51:49;18.40;99.90
16513;DHT22;8369;48.030;11.598;2023-07-02T01:54:15;18.40;99.90
16513;DHT22;8369;48.030;11.598;2023-07-02T01:56:41;18.40;99.90
16513;DHT22;8369;48.030;11.598;2023-07-02T01:59:07;18.40;99.90
16513;DHT22;8369;48.030;11.598;2023-07-02T02:01:32;18.40;99.90
16513;DHT22;8369;48.030;11.598;2023-07-02T02:03:58;18.30;99.90
16513;DHT22;8369;48.030;11.598;2023-07-02T02:06:24;18.30;99.90
16513;DHT22;8369;48.030;11.598;2023-07-02T02:08:50;18.30;99.90
16513;DHT22;8369;48.030;11.598;2023-07-02T02:11:15;18.30;99.90
16513;DHT22;8369;48.030;11.598;2023-07-02T02:13:41;18.30;99.90
16513;DHT22;8369;48.030;11.598;2023-07-02T02:16:07;18.30;99.90
16513;DHT22;8369;48.030;11.598;2023-07-02T02:18:33;18.30;99.90
16513;DHT22;8369;48.030;11.598;2023-07-02T02:21:00;18.30;99.90
16513;DHT22;8369;48.030;11.598;2023-07-02T02:23:26;18.30;99.90
16513;DHT22;8369;48.030;11.598;2023-07-02T02:25:51;18.30;99.90
16513;DHT22;8369;48.030;11.598;2023-07-02T02:28:17;18.20;99.90
16513;DHT22;8369;48.030;11.598;2023-07-02T02:30:43;18.20;99.90
16513;DHT22;8369;48.030;11.598;2023-07-02T02:33:08;18.20;99.90
16513;DHT22;8369;48.030;11.598;2023-07-02T02:35:34;18.20;99.90
16513;DHT22;8369;48.030;11.598;2023-07-02T02:38:02;18.20;99.90
16513;DHT22;8369;48.030;11.598;2023-07-02T02:40:28;18.20;99.90
16513;DHT22;8369;48.030;11.598;2023-07-02T02:42:54;18.20;99.90
16513;DHT22;8369;48.030;11.598;2023-07-02T02:45:20;18.20;99.90
16513;DHT22;8369;48.030;11.598;2023-07-02T02:47:46;18.20;99.90
16513;DHT22;8369;48.030;11.598;2023-07-02T02:50:15;18.20;99.90
16513;DHT22;8369;48.030;11.598;2023-07-02T02:52:43;18.20;99.90
16513;DHT22;8369;48.030;11.598;2023-07-02T02:55:12;18.20;99.90
16513;DHT22;8369;48.030;11.598;2023-07-02T02:57:38;18.20;99.90
16513;DHT22;8369;48.030;11.598;2023-07-02T03:00:04;18.20;99.90
16513;DHT22;8369;48.030;11.598;2023-07-02T03:02:30;18.20;99.90
16513;DHT22;8369;48.030;11.598;2023-07-02T03:04:56;18.30;99.90
16513;DHT22;8369;48.030;11.598;2023-07-02T03:07:22;18.30;99.90
16513;DHT22;8369;48.030;11.598;2023-07-02T03:09:48;18.30;99.90
16513;DHT22;8369;48.030;11.598;2023-07-02T03:12:14;18.30;99.90
16513;DHT22;8369;48.030;11.598;2023-07-02T03:14:39;18.30;99.90
16513;DHT22;8369;48.030;11.598;2023-07-02T03:17:05;18.40;99.90
16513;DHT22;8369;48.030;11.598;2023-07-02T03:19:31;18.40;99.90
16513;DHT22;8369;48.030;11.598;2023-07-02T03:21:57;18.40;99.90
16513;DHT22;8369;48.030;11.598;2023-07-02T03:24:22;18.40;99.90
16513;DHT22;8369;48.030;11.598;2023-07-02T03:26:48;18.40;99.90
16513;DHT22;8369;48.030;11.598;2023-07-02T03:29:17;18.40;99.90
16513;DHT22;8369;48.030;11.598;2023-07-02T03:31:45;18.40;99.90
16513;DHT22;8369;48.030;11.598;2023-07-02T03:34:11;18.40;99.90
16513;DHT22;8369;48.030;11.598;2023-07-02T03:36:37;18.40;99.90
16513;DHT22;8369;48.030;11.598;2023-07-02T03:39:03;18.40;99.90
16513;DHT22;8369;48.030;11.598;2023-07-02T03:41:30;18.30;99.90
16513;DHT22;8369;48.030;11.598;2023-07-02T03:43:56;18.30;99.90
16513;DHT22;8369;48.030;11.598;2023-07-02T03:46:22;18.30;99.90
16513;DHT22;8369;48.030;11.598;2023-07-02T03:48:48;18.30;99.90
16513;DHT22;8369;48.030;11.598;2023-07-02T03:51:15;18.10;99.90
16513;DHT22;8369;48.030;11.598;2023-07-02T03:53:44;18.00;99.90
16513;DHT22;8369;48.030;11.598;2023-07-02T03:56:10;17.80;99.90
16513;DHT22;8369;48.030;11.598;2023-07-02T03:58:36;17.70;99.90
16513;DHT22;8369;48.030;11.598;2023-07-02T04:01:02;17.60;99.90
16513;DHT22;8369;48.030;11.598;2023-07-02T04:03:28;17.50;99.90
16513;DHT22;8369;48.030;11.598;2023-07-02T04:05:55;17.40;99.90
16513;DHT22;8369;48.030;11.598;2023-07-02T04:08:21;17.30;99.90
16513;DHT22;8369;48.030;11.598;2023-07-02T04:10:48;17.20;99.90
16513;DHT22;8369;48.030;11.598;2023-07-02T04:13:14;17.10;99.90
16513;DHT22;8369;48.030;11.598;2023-07-02T04:15:40;17.00;99.90
16513;DHT22;8369;48.030;11.598;2023-07-02T04:18:09;17.00;99.90
16513;DHT22;8369;48.030;11.598;2023-07-02T04:20:35;17.00;99.90
16513;DHT22;8369;48.030;11.598;2023-07-02T04:23:05;17.00;99.90
16513;DHT22;8369;48.030;11.598;2023-07-02T04:25:33;16.90;99.90
16513;DHT22;8369;48.030;11.598;2023-07-02T04:27:59;16.80;99.90
16513;DHT22;8369;48.030;11.598;2023-07-02T04:30:25;16.80;99.90
16513;DHT22;8369;48.030;11.598;2023-07-02T04:32:56;16.80;99.90
16513;DHT22;8369;48.030;11.598;2023-07-02T04:35:22;16.80;99.90
16513;DHT22;8369;48.030;11.598;2023-07-02T04:37:48;16.70;99.90
16513;DHT22;8369;48.030;11.598;2023-07-02T04:40:16;16.70;99.90
16513;DHT22;8369;48.030;11.598;2023-07-02T04:42:43;16.70;99.90
16513;DHT22;8369;48.030;11.598;2023-07-02T04:45:41;16.70;99.90
16513;DHT22;8369;48.030;11.598;2023-07-02T04:48:10;16.70;99.90
16513;DHT22;8369;48.030;11.598;2023-07-02T04:50:36;16.70;99.90
16513;DHT22;8369;48.030;11.598;2023-07-02T04:53:02;16.70;99.90
16513;DHT22;8369;48.030;11.598;2023-07-02T04:55:28;16.70;99.90
16513;DHT22;8369;48.030;11.598;2023-07-02T04:57:56;16.70;99.90
16513;DHT22;8369;48.030;11.598;2023-07-02T05:00:22;16.80;99.90
16513;DHT22;8369;48.030;11.598;2023-07-02T05:02:49;16.80;99.90
16513;DHT22;8369;48.030;11.598;2023-07-02T05:05:16;16.80;99.90
16513;DHT22;8369;48.030;11.598;2023-07-02T05:07:42;16.80;99.90
16513;DHT22;8369;48.030;11.598;2023-07-02T05:10:08;16.80;99.90
16513;DHT22;8369;48.030;11.598;2023-07-02T05:12:35;16.80;99.90
16513;DHT22;8369;48.030;11.598;2023-07-02T05:15:01;16.80;99.90
16513;DHT22;8369;48.030;11.598;2023-07-02T05:17:28;16.80;99.90
16513;DHT22;8369;48.030;11.598;2023-07-02T05:19:53;16.80;99.90
16513;DHT22;8369;48.030;11.598;2023-07-02T05:22:20;16.80;99.90
16513;DHT22;8369;48.030;11.598;2023-07-02T05:24:46;16.80;99.90
16513;DHT22;8369;48.030;11.598;2023-07-02T05:27:13;16.90;99.90
16513;DHT22;8369;48.030;11.598;2023-07-02T05:29:39;16.80;99.90
16513;DHT22;8369;48.030;11.598;2023-07-02T05:32:06;16.80;99.90
16513;DHT22;8369;48.030;11.598;2023-07-02T05:34:32;16.80;99.90
16513;DHT22;8369;48.030;11.598;2023-07-02T05:36:58;16.90;99.90
16513;DHT22;8369;48.030;11.598;2023-07-02T05:39:25;16.90;99.90
16513;DHT22;8369;48.030;11.598;2023-07-02T05:41:51;16.90;99.90
16513;DHT22;8369;48.030;11.598;2023-07-02T05:44:18;16.90;99.90
16513;DHT22;8369;48.030;11.598;2023-07-02T05:46:44;16.90;99.90
16513;DHT22;8369;48.030;11.598;2023-07-02T05:49:11;17.00;99.90
16513;DHT22;8369;48.030;11.598;2023-07-02T05:51:37;17.00;99.90
16513;DHT22;8369;48.030;11.598;2023-07-02T05:54:03;17.00;99.90
16513;DHT22;8369;48.030;11.598;2023-07-02T05:56:29;17.00;99.90
16513;DHT22;8369;48.030;11.598;2023-07-02T05:58:55;17.00;99.90
16513;DHT22;8369;48.030;11.598;2023-07-02T06:01:22;17.00;99.90
16513;DHT22;8369;48.030;11.598;2023-07-02T06:03:51;17.00;99.90
16513;DHT22;8369;48.030;11.598;2023-07-02T06:06:17;17.10;99.90
16513;DHT22;8369;48.030;11.598;2023-07-02T06:08:44;17.10;99.90
16513;DHT22;8369;48.030;11.598;2023-07-02T06:11:10;17.20;99.90
16513;DHT22;8369;48.030;11.598;2023-07-02T06:13:37;17.20;99.90
16513;DHT22;8369;48.030;11.598;2023-07-02T06:16:03;17.20;99.90
16513;DHT22;8369;48.030;11.598;2023-07-02T06:18:29;17.20;99.90
16513;DHT22;8369;48.030;11.598;2023-07-02T06:20:56;17.20;99.90
16513;DHT22;8369;48.030;11.598;2023-07-02T06:23:23;17.20;99.90
16513;DHT22;8369;48.030;11.598;2023-07-02T06:25:50;17.20;99.90
16513;DHT22;8369;48.030;11.598;2023-07-02T06:28:26;17.30;99.90
16513;DHT22;8369;48.030;11.598;2023-07-02T06:30:52;17.30;99.90
16513;DHT22;8369;48.030;11.598;2023-07-02T06:33:19;17.30;99.90
16513;DHT22;8369;48.030;11.598;2023-07-02T06:35:46;17.30;99.90
16513;DHT22;8369;48.030;11.598;2023-07-02T06:38:13;17.30;99.90
16513;DHT22;8369;48.030;11.598;2023-07-02T06:40:40;17.40;99.90
16513;DHT22;8369;48.030;11.598;2023-07-02T06:43:06;17.40;99.90
16513;DHT22;8369;48.030;11.598;2023-07-02T06:45:32;17.40;99.90
16513;DHT22;8369;48.030;11.598;2023-07-02T06:47:59;17.40;99.90
16513;DHT22;8369;48.030;11.598;2023-07-02T06:50:25;17.40;99.90
16513;DHT22;8369;48.030;11.598;2023-07-02T06:52:51;17.50;99.90
16513;DHT22;8369;48.030;11.598;2023-07-02T06:55:18;17.50;99.90
16513;DHT22;8369;48.030;11.598;2023-07-02T06:57:45;17.50;99.90
16513;DHT22;8369;48.030;11.598;2023-07-02T07:00:12;17.50;99.90
16513;DHT22;8369;48.030;11.598;2023-07-02T07:02:39;17.50;99.90
16513;DHT22;8369;48.030;11.598;2023-07-02T07:05:06;17.40;99.90
16513;DHT22;8369;48.030;11.598;2023-07-02T07:07:32;17.50;99.90
16513;DHT22;8369;48.030;11.598;2023-07-02T07:09:58;17.40;99.90
16513;DHT22;8369;48.030;11.598;2023-07-02T07:12:24;17.40;99.90
16513;DHT22;8369;48.030;11.598;2023-07-02T07:14:50;17.40;99.90
16513;DHT22;8369;48.030;11.598;2023-07-02T07:17:16;17.40;99.90
16513;DHT22;8369;48.030;11.598;2023-07-02T07:19:43;17.40;99.90
16513;DHT22;8369;48.030;11.598;2023-07-02T07:22:09;17.40;99.90
16513;DHT22;8369;48.030;11.598;2023-07-02T07:24:38;17.40;99.90
16513;DHT22;8369;48.030;11.598;2023-07-02T07:27:05;17.40;99.90
16513;DHT22;8369;48.030;11.598;2023-07-02T07:29:32;17.40;99.90
16513;DHT22;8369;48.030;11.598;2023-07-02T07:31:59;17.30;99.90
16513;DHT22;8369;48.030;11.598;2023-07-02T07:34:26;17.30;99.90
16513;DHT22;8369;48.030;11.598;2023-07-02T07:36:53;17.10;99.90
16513;DHT22;8369;48.030;11.598;2023-07-02T07:39:20;17.10;99.90
16513;DHT22;8369;48.030;11.598;2023-07-02T07:41:47;17.00;99.90
16513;DHT22;8369;48.030;11.598;2023-07-02T07:44:17;17.00;99.90
16513;DHT22;8369;48.030;11.598;2023-07-02T07:46:44;16.90;99.90
16513;DHT22;8369;48.030;11.598;2023-07-02T07:49:11;16.90;99.90
16513;DHT22;8369;48.030;11.598;2023-07-02T07:51:37;16.90;99.90
16513;DHT22;8369;48.030;11.598;2023-07-02T07:54:04;16.90;99.90
16513;DHT22;8369;48.030;11.598;2023-07-02T07:56:30;16.80;99.90
16513;DHT22;8369;48.030;11.598;2023-07-02T07:58:58;16.80;99.90
16513;DHT22;8369;48.030;11.598;2023-07-02T08:01:26;16.80;99.90
16513;DHT22;8369;48.030;11.598;2023-07-02T08:03:52;16.80;99.90
16513;DHT22;8369;48.030;11.598;2023-07-02T08:06:19;16.80;99.90
16513;DHT22;8369;48.030;11.598;2023-07-02T08:08:46;16.80;99.90
16513;DHT22;8369;48.030;11.598;2023-07-02T08:11:12;16.90;99.90
16513;DHT22;8369;48.030;11.598;2023-07-02T08:13:39;16.90;99.90
16513;DHT22;8369;48.030;11.598;2023-07-02T08:16:05;17.00;99.90
16513;DHT22;8369;48.030;11.598;2023-07-02T08:18:30;17.00;99.90
16513;DHT22;8369;48.030;11.598;2023-07-02T08:20:57;17.10;99.90
16513;DHT22;8369;48.030;11.598;2023-07-02T08:23:24;17.10;99.90
16513;DHT22;8369;48.030;11.598;2023-07-02T08:25:50;17.20;99.90
16513;DHT22;8369;48.030;11.598;2023-07-02T08:28:16;17.30;99.90
16513;DHT22;8369;48.030;11.598;2023-07-02T08:30:42;17.30;99.90
16513;DHT22;8369;48.030;11.598;2023-07-02T08:33:08;17.30;99.90
16513;DHT22;8369;48.030;11.598;2023-07-02T08:35:34;17.40;99.90
16513;DHT22;8369;48.030;11.598;2023-07-02T08:38:01;17.30;99.90
16513;DHT22;8369;48.030;11.598;2023-07-02T08:40:27;17.30;99.90
16513;DHT22;8369;48.030;11.598;2023-07-02T08:42:55;17.30;99.90
16513;DHT22;8369;48.030;11.598;2023-07-02T08:45:23;17.30;99.90
16513;DHT22;8369;48.030;11.598;2023-07-02T08:47:55;17.30;99.90
16513;DHT22;8369;48.030;11.598;2023-07-02T08:50:22;17.30;99.90
16513;DHT22;8369;48.030;11.598;2023-07-02T08:52:49;17.20;99.90
16513;DHT22;8369;48.030;11.598;2023-07-02T08:55:16;17.30;99.90
16513;DHT22;8369;48.030;11.598;2023-07-02T08:57:49;17.30;99.90
16513;DHT22;8369;48.030;11.598;2023-07-02T09:00:17;17.40;99.90
16513;DHT22;8369;48.030;11.598;2023-07-02T09:02:43;17.40;99.90
16513;DHT22;8369;48.030;11.598;2023-07-02T09:05:10;17.50;99.90
16513;DHT22;8369;48.030;11.598;2023-07-02T09:07:47;17.50;99.90
16513;DHT22;8369;48.030;11.598;2023-07-02T09:10:29;17.50;99.90
16513;DHT22;8369;48.030;11.598;2023-07-02T09:13:06;17.60;99.90
16513;DHT22;8369;48.030;11.598;2023-07-02T09:15:40;17.50;99.90
16513;DHT22;8369;48.030;11.598;2023-07-02T09:18:21;17.50;99.90
16513;DHT22;8369;48.030;11.598;2023-07-02T09:20:51;17.50;99.90
16513;DHT22;8369;48.030;11.598;2023-07-02T09:23:19;17.60;99.90
16513;DHT22;8369;48.030;11.598;2023-07-02T09:25:48;17.60;99.90
16513;DHT22;8369;48.030;11.598;2023-07-02T09:30:55;17.60;99.90
16513;DHT22;8369;48.030;11.598;2023-07-02T09:33:27;17.70;99.90
16513;DHT22;8369;48.030;11.598;2023-07-02T09:35:56;17.80;99.90
16513;DHT22;8369;48.030;11.598;2023-07-02T09:38:25;18.00;99.90
16513;DHT22;8369;48.030;11.598;2023-07-02T09:40:53;18.00;99.90
16513;DHT22;8369;48.030;11.598;2023-07-02T09:43:21;18.10;99.90
16513;DHT22;8369;48.030;11.598;2023-07-02T09:45:50;18.30;99.90
16513;DHT22;8369;48.030;11.598;2023-07-02T09:48:17;18.40;99.90
16513;DHT22;8369;48.030;11.598;2023-07-02T09:50:52;18.50;99.90
16513;DHT22;8369;48.030;11.598;2023-07-02T09:53:19;18.70;99.90
16513;DHT22;8369;48.030;11.598;2023-07-02T09:55:46;19.00;99.90
16513;DHT22;8369;48.030;11.598;2023-07-02T09:58:13;19.10;99.90
16513;DHT22;8369;48.030;11.598;2023-07-02T10:00:41;19.30;99.90
16513;DHT22;8369;48.030;11.598;2023-07-02T10:03:08;19.40;99.90
16513;DHT22;8369;48.030;11.598;2023-07-02T10:05:35;19.60;99.90
16513;DHT22;8369;48.030;11.598;2023-07-02T10:08:15;19.60;99.90
16513;DHT22;8369;48.030;11.598;2023-07-02T10:10:47;19.70;99.90
16513;DHT22;8369;48.030;11.598;2023-07-02T10:13:14;19.80;99.90
16513;DHT22;8369;48.030;11.598;2023-07-02T10:15:41;19.80;99.90
16513;DHT22;8369;48.030;11.598;2023-07-02T10:18:09;19.90;99.90
16513;DHT22;8369;48.030;11.598;2023-07-02T10:20:40;19.90;99.90
16513;DHT22;8369;48.030;11.598;2023-07-02T10:23:09;19.90;99.90
16513;DHT22;8369;48.030;11.598;2023-07-02T10:25:37;19.90;99.90
16513;DHT22;8369;48.030;11.598;2023-07-02T10:28:20;20.00;99.90
16513;DHT22;8369;48.030;11.598;2023-07-02T10:30:50;20.00;99.90
16513;DHT22;8369;48.030;11.598;2023-07-02T10:33:20;20.10;99.90
16513;DHT22;8369;48.030;11.598;2023-07-02T10:35:49;20.30;99.90
16513;DHT22;8369;48.030;11.598;2023-07-02T10:38:23;20.30;99.90
16513;DHT22;8369;48.030;11.598;2023-07-02T10:40:58;20.50;99.90
16513;DHT22;8369;48.030;11.598;2023-07-02T10:43:30;20.60;99.90
16513;DHT22;8369;48.030;11.598;2023-07-02T10:45:58;20.90;99.90
16513;DHT22;8369;48.030;11.598;2023-07-02T10:48:31;21.00;99.90
16513;DHT22;8369;48.030;11.598;2023-07-02T10:50:59;21.10;99.90
16513;DHT22;8369;48.030;11.598;2023-07-02T10:53:26;21.30;99.90
16513;DHT22;8369;48.030;11.598;2023-07-02T10:55:57;21.40;99.90
16513;DHT22;8369;48.030;11.598;2023-07-02T10:58:26;21.60;99.90
16513;DHT22;8369;48.030;11.598;2023-07-02T11:00:53;21.70;99.90
16513;DHT22;8369;48.030;11.598;2023-07-02T11:03:23;21.80;99.90
16513;DHT22;8369;48.030;11.598;2023-07-02T11:05:50;21.90;99.90
16513;DHT22;8369;48.030;11.598;2023-07-02T11:08:17;21.80;99.90
16513;DHT22;8369;48.030;11.598;2023-07-02T11:10:43;21.80;99.90
16513;DHT22;8369;48.030;11.598;2023-07-02T11:15:38;22.00;99.90
16513;DHT22;8369;48.030;11.598;2023-07-02T11:18:13;22.10;99.90
16513;DHT22;8369;48.030;11.598;2023-07-02T11:20:40;22.20;99.90
16513;DHT22;8369;48.030;11.598;2023-07-02T11:23:24;22.40;99.90
16513;DHT22;8369;48.030;11.598;2023-07-02T11:26:02;22.50;99.90
16513;DHT22;8369;48.030;11.598;2023-07-02T11:28:30;22.60;99.90
16513;DHT22;8369;48.030;11.598;2023-07-02T11:30:58;22.80;99.90
16513;DHT22;8369;48.030;11.598;2023-07-02T11:36:00;23.00;99.90
16513;DHT22;8369;48.030;11.598;2023-07-02T11:38:26;23.00;99.90
16513;DHT22;8369;48.030;11.598;2023-07-02T11:40:52;23.00;99.90
16513;DHT22;8369;48.030;11.598;2023-07-02T11:43:21;23.20;99.90
16513;DHT22;8369;48.030;11.598;2023-07-02T11:45:47;23.30;99.90
16513;DHT22;8369;48.030;11.598;2023-07-02T11:48:13;23.30;99.90
16513;DHT22;8369;48.030;11.598;2023-07-02T11:50:40;23.50;99.90
16513;DHT22;8369;48.030;11.598;2023-07-02T11:53:06;23.40;98.50
16513;DHT22;8369;48.030;11.598;2023-07-02T11:55:31;23.50;97.20
16513;DHT22;8369;48.030;11.598;2023-07-02T11:57:57;23.50;93.70
16513;DHT22;8369;48.030;11.598;2023-07-02T12:00:23;23.50;96.40
16513;DHT22;8369;48.030;11.598;2023-07-02T12:02:58;23.60;95.30
16513;DHT22;8369;48.030;11.598;2023-07-02T12:05:29;23.70;94.40
16513;DHT22;8369;48.030;11.598;2023-07-02T12:07:58;23.80;90.10
16513;DHT22;8369;48.030;11.598;2023-07-02T12:10:26;23.90;86.60
16513;DHT22;8369;48.030;11.598;2023-07-02T12:12:52;23.90;90.20
16513;DHT22;8369;48.030;11.598;2023-07-02T12:15:21;23.80;90.00
16513;DHT22;8369;48.030;11.598;2023-07-02T12:17:47;23.90;86.00
16513;DHT22;8369;48.030;11.598;2023-07-02T12:20:13;23.90;83.30
16513;DHT22;8369;48.030;11.598;2023-07-02T12:22:39;23.80;84.20
16513;DHT22;8369;48.030;11.598;2023-07-02T12:25:08;23.80;86.00
16513;DHT22;8369;48.030;11.598;2023-07-02T12:27:40;23.70;87.90
16513;DHT22;8369;48.030;11.598;2023-07-02T12:30:06;23.70;90.10
16513;DHT22;8369;48.030;11.598;2023-07-02T12:32:33;23.70;86.00
16513;DHT22;8369;48.030;11.598;2023-07-02T12:34:59;23.60;87.20
16513;DHT22;8369;48.030;11.598;2023-07-02T12:37:25;23.50;88.20
16513;DHT22;8369;48.030;11.598;2023-07-02T12:39:51;23.50;89.80
16513;DHT22;8369;48.030;11.598;2023-07-02T12:42:17;23.50;87.90
16513;DHT22;8369;48.030;11.598;2023-07-02T12:44:43;23.60;88.50
16513;DHT22;8369;48.030;11.598;2023-07-02T12:47:11;23.60;87.20
16513;DHT22;8369;48.030;11.598;2023-07-02T12:49:40;23.70;88.60
16513;DHT22;8369;48.030;11.598;2023-07-02T12:52:18;23.70;84.40
16513;DHT22;8369;48.030;11.598;2023-07-02T12:54:44;23.80;86.50
16513;DHT22;8369;48.030;11.598;2023-07-02T12:57:22;23.90;85.90
16513;DHT22;8369;48.030;11.598;2023-07-02T12:59:53;24.00;87.10
16513;DHT22;8369;48.030;11.598;2023-07-02T13:02:20;24.20;83.10
16513;DHT22;8369;48.030;11.598;2023-07-02T13:05:24;24.40;83.70
16513;DHT22;8369;48.030;11.598;2023-07-02T13:07:52;24.50;83.90
16513;DHT22;8369;48.030;11.598;2023-07-02T13:10:21;24.60;81.40
16513;DHT22;8369;48.030;11.598;2023-07-02T13:12:51;24.60;81.50
16513;DHT22;8369;48.030;11.598;2023-07-02T13:15:20;24.60;82.40
16513;DHT22;8369;48.030;11.598;2023-07-02T13:17:46;24.80;79.60
16513;DHT22;8369;48.030;11.598;2023-07-02T13:20:12;24.80;78.40
16513;DHT22;8369;48.030;11.598;2023-07-02T13:22:38;24.90;79.70
16513;DHT22;8369;48.030;11.598;2023-07-02T13:25:12;24.80;80.00
16513;DHT22;8369;48.030;11.598;2023-07-02T13:27:37;24.80;78.50
16513;DHT22;8369;48.030;11.598;2023-07-02T13:30:03;24.80;77.30
16513;DHT22;8369;48.030;11.598;2023-07-02T13:32:30;24.80;77.60
16513;DHT22;8369;48.030;11.598;2023-07-02T13:34:56;24.80;75.60
16513;DHT22;8369;48.030;11.598;2023-07-02T13:37:22;24.80;77.80
16513;DHT22;8369;48.030;11.598;2023-07-02T13:39:49;24.80;78.10
16513;DHT22;8369;48.030;11.598;2023-07-02T13:42:15;24.70;75.30
16513;DHT22;8369;48.030;11.598;2023-07-02T13:44:42;24.70;74.90
16513;DHT22;8369;48.030;11.598;2023-07-02T13:47:11;24.60;76.40
16513;DHT22;8369;48.030;11.598;2023-07-02T13:49:37;24.60;78.20
16513;DHT22;8369;48.030;11.598;2023-07-02T13:52:03;24.70;78.10
16513;DHT22;8369;48.030;11.598;2023-07-02T13:54:29;24.70;78.20
16513;DHT22;8369;48.030;11.598;2023-07-02T13:56:56;24.80;76.20
16513;DHT22;8369;48.030;11.598;2023-07-02T13:59:22;24.80;76.50
16513;DHT22;8369;48.030;11.598;2023-07-02T14:01:49;24.90;75.50
16513;DHT22;8369;48.030;11.598;2023-07-02T14:04:17;25.00;74.60
16513;DHT22;8369;48.030;11.598;2023-07-02T14:06:43;25.00;74.60
16513;DHT22;8369;48.030;11.598;2023-07-02T14:09:09;25.10;75.50
16513;DHT22;8369;48.030;11.598;2023-07-02T14:11:37;25.10;75.60
16513;DHT22;8369;48.030;11.598;2023-07-02T14:14:03;25.20;73.90
16513;DHT22;8369;48.030;11.598;2023-07-02T14:16:29;25.00;72.00
16513;DHT22;8369;48.030;11.598;2023-07-02T14:18:58;25.00;73.60
16513;DHT22;8369;48.030;11.598;2023-07-02T14:21:25;24.80;73.20
16513;DHT22;8369;48.030;11.598;2023-07-02T14:23:51;24.80;74.90
16513;DHT22;8369;48.030;11.598;2023-07-02T14:26:17;24.60;73.50
16513;DHT22;8369;48.030;11.598;2023-07-02T14:28:42;24.50;73.00
16513;DHT22;8369;48.030;11.598;2023-07-02T14:31:08;24.40;75.20
16513;DHT22;8369;48.030;11.598;2023-07-02T14:33:36;24.20;75.00
16513;DHT22;8369;48.030;11.598;2023-07-02T14:36:06;24.20;76.50
16513;DHT22;8369;48.030;11.598;2023-07-02T14:38:35;24.10;75.80
16513;DHT22;8369;48.030;11.598;2023-07-02T14:41:01;24.10;77.10
16513;DHT22;8369;48.030;11.598;2023-07-02T14:43:29;24.10;77.10
16513;DHT22;8369;48.030;11.598;2023-07-02T14:45:56;24.10;76.80
16513;DHT22;8369;48.030;11.598;2023-07-02T14:48:25;24.10;77.10
16513;DHT22;8369;48.030;11.598;2023-07-02T14:50:59;24.20;78.20
16513;DHT22;8369;48.030;11.598;2023-07-02T14:53:27;24.30;74.70
16513;DHT22;8369;48.030;11.598;2023-07-02T14:56:12;24.40;75.20
16513;DHT22;8369;48.030;11.598;2023-07-02T14:58:41;24.40;77.60
16513;DHT22;8369;48.030;11.598;2023-07-02T15:01:07;24.60;74.90
16513;DHT22;8369;48.030;11.598;2023-07-02T15:03:33;24.70;74.70
16513;DHT22;8369;48.030;11.598;2023-07-02T15:06:12;24.70;75.50
16513;DHT22;8369;48.030;11.598;2023-07-02T15:08:44;24.70;76.50
16513;DHT22;8369;48.030;11.598;2023-07-02T15:11:11;24.70;76.80
16513;DHT22;8369;48.030;11.598;2023-07-02T15:13:38;24.70;74.40
16513;DHT22;8369;48.030;11.598;2023-07-02T15:16:05;24.70;74.60
16513;DHT22;8369;48.030;11.598;2023-07-02T15:18:31;24.80;74.90
16513;DHT22;8369;48.030;11.598;2023-07-02T15:20:57;24.80;73.30
16513;DHT22;8369;48.030;11.598;2023-07-02T15:23:24;24.80;73.90
16513;DHT22;8369;48.030;11.598;2023-07-02T15:25:58;24.80;74.40
16513;DHT22;8369;48.030;11.598;2023-07-02T15:28:28;24.80;75.00
16513;DHT22;8369;48.030;11.598;2023-07-02T15:31:03;24.80;70.60
16513;DHT22;8369;48.030;11.598;2023-07-02T15:33:29;24.70;72.40
16513;DHT22;8369;48.030;11.598;2023-07-02T15:35:58;24.80;71.50
16513;DHT22;8369;48.030;11.598;2023-07-02T15:38:27;24.80;71.10
16513;DHT22;8369;48.030;11.598;2023-07-02T15:41:14;24.80;69.20
16513;DHT22;8369;48.030;11.598;2023-07-02T15:43:45;24.70;70.70